sensor_id;sensor_type;location;lat;lon;timestamp;pressure;altitude;pressure_sealevel;temperature;humidity
18436;BME280;9346;52.006;4.720;2024-03-22T00:00:14;102027.31;;;12.49;100.00
18436;BME280;9346;52.006;4.720;2024-03-22T00:02:41;102030.66;;;12.51;100.00
18436;BME280;9346;52.006;4.720;2024-03-22T00:05:09;102020.69;;;12.50;100.00
18436;BME280;9346;52.006;4.720;2024-03-22T00:07:34;102021.53;;;12.51;100.00
18436;BME280;9346;52.006;4.720;2024-03-22T00:10:02;102017.94;;;12.50;100.00
18436;BME280;9346;52.006;4.720;2024-03-22T00:12:27;102010.75;;;12.49;100.00
18436;BME280;9346;52.006;4.720;2024-03-22T00:14:54;102006.06;;;12.50;100.00
18436;BME280;9346;52.006;4.720;2024-03-22T00:17:21;101998.03;;;12.48;100.00
18436;BME280;9346;52.006;4.720;2024-03-22T00:19:48;101993.84;;;12.46;100.00
18436;BME280;9346;52.006;4.720;2024-03-22T00:22:14;101984.22;;;12.48;100.00
18436;BME280;9346;52.006;4.720;2024-03-22T00:24:42;101980.59;;;12.48;100.00
18436;BME280;9346;52.006;4.720;2024-03-22T00:27:08;101975.06;;;12.48;100.00
18436;BME280;9346;52.006;4.720;2024-03-22T00:29:37;101962.34;;;12.47;100.00
18436;BME280;9346;52.006;4.720;2024-03-22T00:32:03;101962.09;;;12.48;100.00
18436;BME280;9346;52.006;4.720;2024-03-22T00:34:32;101964.88;;;12.48;100.00
18436;BME280;9346;52.006;4.720;2024-03-22T00:36:57;101951.31;;;12.47;100.00
18436;BME280;9346;52.006;4.720;2024-03-22T00:39:24;101942.44;;;12.45;100.00
18436;BME280;9346;52.006;4.720;2024-03-22T00:41:49;101942.13;;;12.41;100.00
18436;BME280;9346;52.006;4.720;2024-03-22T00:44:16;101939.28;;;12.36;100.00
18436;BME280;9346;52.006;4.720;2024-03-22T00:46:42;101932.94;;;12.36;100.00
18436;BME280;9346;52.006;4.720;2024-03-22T00:49:09;101926.59;;;12.35;100.00
18436;BME280;9346;52.006;4.720;2024-03-22T00:51:36;101922.69;;;12.31;100.00
18436;BME280;9346;52.006;4.720;2024-03-22T00:54:03;101921.84;;;12.31;100.00
18436;BME280;9346;52.006;4.720;2024-03-22T00:56:29;101925.97;;;12.28;100.00
18436;BME280;9346;52.006;4.720;2024-03-22T00:58:56;101913.81;;;12.29;100.00
18436;BME280;9346;52.006;4.720;2024-03-22T01:01:22;101916.25;;;12.26;100.00
18436;BME280;9346;52.006;4.720;2024-03-22T01:03:48;101923.47;;;12.27;100.00
18436;BME280;9346;52.006;4.720;2024-03-22T01:06:14;101920.97;;;12.25;100.00
18436;BME280;9346;52.006;4.720;2024-03-22T01:08:42;101920.38;;;12.23;100.00
18436;BME280;9346;52.006;4.720;2024-03-22T01:11:08;101909.56;;;12.22;100.00
18436;BME280;9346;52.006;4.720;2024-03-22T01:13:34;101912.06;;;12.23;100.00
18436;BME280;9346;52.006;4.720;2024-03-22T01:16:00;101917.00;;;12.21;100.00
18436;BME280;9346;52.006;4.720;2024-03-22T01:18:28;101924.75;;;12.19;100.00
18436;BME280;9346;52.006;4.720;2024-03-22T01:20:54;101932.44;;;12.17;100.00
18436;BME280;9346;52.006;4.720;2024-03-22T01:23:21;101935.22;;;12.17;100.00
18436;BME280;9346;52.006;4.720;2024-03-22T01:25:48;101932.16;;;12.14;100.00
18436;BME280;9346;52.006;4.720;2024-03-22T01:28:15;101933.22;;;12.13;100.00
18436;BME280;9346;52.006;4.720;2024-03-22T01:30:41;101936.25;;;12.11;100.00
18436;BME280;9346;52.006;4.720;2024-03-22T01:33:09;101930.16;;;12.09;100.00
18436;BME280;9346;52.006;4.720;2024-03-22T01:35:35;101927.41;;;12.09;100.00
18436;BME280;9346;52.006;4.720;2024-03-22T01:38:02;101919.66;;;12.11;100.00
18436;BME280;9346;52.006;4.720;2024-03-22T01:40:27;101916.34;;;12.09;100.00
18436;BME280;9346;52.006;4.720;2024-03-22T01:42:57;101901.91;;;12.02;100.00
18436;BME280;9346;52.006;4.720;2024-03-22T01:45:23;101904.34;;;11.99;100.00
18436;BME280;9346;52.006;4.720;2024-03-22T01:47:50;101901.56;;;11.99;100.00
18436;BME280;9346;52.006;4.720;2024-03-22T01:50:16;101901.84;;;11.97;100.00
18436;BME280;9346;52.006;4.720;2024-03-22T01:52:42;101906.50;;;11.97;100.00
18436;BME280;9346;52.006;4.720;2024-03-22T01:55:08;101893.88;;;12.01;100.00
18436;BME280;9346;52.006;4.720;2024-03-22T01:57:35;101894.69;;;12.01;100.00
18436;BME280;9346;52.006;4.720;2024-03-22T02:00:04;101906.00;;;12.00;100.00
18436;BME280;9346;52.006;4.720;2024-03-22T02:02:33;101895.81;;;12.00;100.00
18436;BME280;9346;52.006;4.720;2024-03-22T02:05:11;101889.75;;;12.03;100.00
18436;BME280;9346;52.006;4.720;2024-03-22T02:07:38;101899.16;;;12.02;100.00
18436;BME280;9346;52.006;4.720;2024-03-22T02:10:05;101895.53;;;12.02;100.00
18436;BME280;9346;52.006;4.720;2024-03-22T02:12:33;101898.56;;;12.00;100.00
18436;BME280;9346;52.006;4.720;2024-03-22T02:14:59;101885.84;;;11.99;100.00
18436;BME280;9346;52.006;4.720;2024-03-22T02:17:27;101895.22;;;11.98;100.00
18436;BME280;9346;52.006;4.720;2024-03-22T02:19:53;101894.94;;;12.00;100.00
18436;BME280;9346;52.006;4.720;2024-03-22T02:22:20;101887.50;;;12.00;100.00
18436;BME280;9346;52.006;4.720;2024-03-22T02:24:47;101879.22;;;12.00;100.00
18436;BME280;9346;52.006;4.720;2024-03-22T02:27:14;101867.84;;;11.97;100.00
18436;BME280;9346;52.006;4.720;2024-03-22T02:29:39;101861.53;;;11.96;100.00
18436;BME280;9346;52.006;4.720;2024-03-22T02:32:06;101856.25;;;11.95;100.00
18436;BME280;9346;52.006;4.720;2024-03-22T02:34:32;101862.03;;;11.93;100.00
18436;BME280;9346;52.006;4.720;2024-03-22T02:36:59;101858.44;;;11.93;100.00
18436;BME280;9346;52.006;4.720;2024-03-22T02:39:24;101857.03;;;11.90;100.00
18436;BME280;9346;52.006;4.720;2024-03-22T02:41:53;101844.50;;;11.83;100.00
18436;BME280;9346;52.006;4.720;2024-03-22T02:44:19;101842.34;;;11.85;100.00
18436;BME280;9346;52.006;4.720;2024-03-22T02:46:46;101845.34;;;11.83;100.00
18436;BME280;9346;52.006;4.720;2024-03-22T02:49:13;101839.00;;;11.83;100.00
18436;BME280;9346;52.006;4.720;2024-03-22T02:51:40;101838.16;;;11.82;100.00
18436;BME280;9346;52.006;4.720;2024-03-22T02:54:06;101832.63;;;11.82;100.00
18436;BME280;9346;52.006;4.720;2024-03-22T02:56:32;101835.97;;;11.84;100.00
18436;BME280;9346;52.006;4.720;2024-03-22T02:59:00;101823.00;;;11.85;100.00
18436;BME280;9346;52.006;4.720;2024-03-22T03:01:26;101814.16;;;11.83;100.00
18436;BME280;9346;52.006;4.720;2024-03-22T03:03:52;101813.56;;;11.81;100.00
18436;BME280;9346;52.006;4.720;2024-03-22T03:06:19;101806.38;;;11.80;100.00
18436;BME280;9346;52.006;4.720;2024-03-22T03:08:46;101807.75;;;11.77;100.00
18436;BME280;9346;52.006;4.720;2024-03-22T03:11:13;101794.44;;;11.74;100.00
18436;BME280;9346;52.006;4.720;2024-03-22T03:13:39;101796.63;;;11.72;100.00
18436;BME280;9346;52.006;4.720;2024-03-22T03:16:07;101788.31;;;11.67;100.00
18436;BME280;9346;52.006;4.720;2024-03-22T03:18:34;101783.84;;;11.66;100.00
18436;BME280;9346;52.006;4.720;2024-03-22T03:21:01;101775.50;;;11.61;100.00
18436;BME280;9346;52.006;4.720;2024-03-22T03:23:27;101772.16;;;11.59;100.00
18436;BME280;9346;52.006;4.720;2024-03-22T03:25:54;101766.91;;;11.58;100.00
18436;BME280;9346;52.006;4.720;2024-03-22T03:28:19;101764.97;;;11.58;100.00
18436;BME280;9346;52.006;4.720;2024-03-22T03:30:46;101761.72;;;11.61;100.00
18436;BME280;9346;52.006;4.720;2024-03-22T03:33:13;101757.25;;;11.60;100.00
18436;BME280;9346;52.006;4.720;2024-03-22T03:35:40;101751.19;;;11.58;100.00
18436;BME280;9346;52.006;4.720;2024-03-22T03:38:05;101768.31;;;11.60;100.00
18436;BME280;9346;52.006;4.720;2024-03-22T03:40:32;101752.84;;;11.59;100.00
18436;BME280;9346;52.006;4.720;2024-03-22T03:42:58;101756.44;;;11.60;100.00
18436;BME280;9346;52.006;4.720;2024-03-22T03:45:25;101748.69;;;11.57;100.00
18436;BME280;9346;52.006;4.720;2024-03-22T03:47:51;101745.59;;;11.53;100.00
18436;BME280;9346;52.006;4.720;2024-03-22T03:50:19;101745.03;;;11.51;100.00
18436;BME280;9346;52.006;4.720;2024-03-22T03:52:45;101736.75;;;11.51;100.00
18436;BME280;9346;52.006;4.720;2024-03-22T03:55:12;101731.75;;;11.48;100.00
18436;BME280;9346;52.006;4.720;2024-03-22T03:57:37;101737.84;;;11.50;100.00
18436;BME280;9346;52.006;4.720;2024-03-22T04:00:05;101718.53;;;11.50;100.00
18436;BME280;9346;52.006;4.720;2024-03-22T04:02:31;101720.72;;;11.48;100.00
18436;BME280;9346;52.006;4.720;2024-03-22T04:04:58;101723.22;;;11.50;100.00
18436;BME280;9346;52.006;4.720;2024-03-22T04:07:25;101712.19;;;11.50;100.00
18436;BME280;9346;52.006;4.720;2024-03-22T04:09:52;101722.38;;;11.49;100.00
18436;BME280;9346;52.006;4.720;2024-03-22T04:12:18;101722.38;;;11.49;100.00
18436;BME280;9346;52.006;4.720;2024-03-22T04:14:45;101728.16;;;11.48;100.00
18436;BME280;9346;52.006;4.720;2024-03-22T04:17:10;101735.34;;;11.49;100.00
18436;BME280;9346;52.006;4.720;2024-03-22T04:19:37;101727.91;;;11.49;100.00
18436;BME280;9346;52.006;4.720;2024-03-22T04:22:03;101731.81;;;11.53;100.00
18436;BME280;9346;52.006;4.720;2024-03-22T04:24:31;101733.75;;;11.53;100.00
18436;BME280;9346;52.006;4.720;2024-03-22T04:26:57;101737.31;;;11.53;100.00
18436;BME280;9346;52.006;4.720;2024-03-22T04:29:24;101740.06;;;11.53;100.00
18436;BME280;9346;52.006;4.720;2024-03-22T04:31:50;101734.56;;;11.53;100.00
18436;BME280;9346;52.006;4.720;2024-03-22T04:34:16;101731.81;;;11.53;100.00
18436;BME280;9346;52.006;4.720;2024-03-22T04:36:42;101732.06;;;11.52;100.00
18436;BME280;9346;52.006;4.720;2024-03-22T04:39:09;101737.84;;;11.50;100.00
18436;BME280;9346;52.006;4.720;2024-03-22T04:41:39;101738.94;;;11.49;100.00
18436;BME280;9346;52.006;4.720;2024-03-22T04:44:06;101737.03;;;11.50;100.00
18436;BME280;9346;52.006;4.720;2024-03-22T04:46:33;101740.84;;;11.49;100.00
18436;BME280;9346;52.006;4.720;2024-03-22T04:49:00;101748.06;;;11.50;100.00
18436;BME280;9346;52.006;4.720;2024-03-22T04:51:25;101742.78;;;11.48;100.00
18436;BME280;9346;52.006;4.720;2024-03-22T04:53:52;101739.19;;;11.48;100.00
18436;BME280;9346;52.006;4.720;2024-03-22T04:56:18;101740.84;;;11.49;100.00
18436;BME280;9346;52.006;4.720;2024-03-22T04:58:46;101743.34;;;11.50;100.00
18436;BME280;9346;52.006;4.720;2024-03-22T05:01:12;101738.94;;;11.49;100.00
18436;BME280;9346;52.006;4.720;2024-03-22T05:03:40;101748.31;;;11.48;100.00
18436;BME280;9346;52.006;4.720;2024-03-22T05:06:06;101734.25;;;11.50;100.00
18436;BME280;9346;52.006;4.720;2024-03-22T05:08:33;101733.94;;;11.46;100.00
18436;BME280;9346;52.006;4.720;2024-03-22T05:10:58;101735.84;;;11.46;100.00
18436;BME280;9346;52.006;4.720;2024-03-22T05:13:25;101744.97;;;11.46;100.00
18436;BME280;9346;52.006;4.720;2024-03-22T05:15:52;101732.84;;;11.47;100.00
18436;BME280;9346;52.006;4.720;2024-03-22T05:18:19;101741.94;;;11.48;100.00
18436;BME280;9346;52.006;4.720;2024-03-22T05:20:45;101725.41;;;11.48;100.00
18436;BME280;9346;52.006;4.720;2024-03-22T05:23:12;101731.75;;;11.48;100.00
18436;BME280;9346;52.006;4.720;2024-03-22T05:25:37;101720.72;;;11.48;100.00
18436;BME280;9346;52.006;4.720;2024-03-22T05:28:04;101717.97;;;11.48;100.00
18436;BME280;9346;52.006;4.720;2024-03-22T05:30:30;101713.53;;;11.47;100.00
18436;BME280;9346;52.006;4.720;2024-03-22T05:32:58;101712.13;;;11.45;100.00
18436;BME280;9346;52.006;4.720;2024-03-22T05:35:24;101706.06;;;11.43;100.00
18436;BME280;9346;52.006;4.720;2024-03-22T05:37:51;101708.22;;;11.41;100.00
18436;BME280;9346;52.006;4.720;2024-03-22T05:40:17;101712.91;;;11.40;100.00
18436;BME280;9346;52.006;4.720;2024-03-22T05:42:43;101703.81;;;11.40;100.00
18436;BME280;9346;52.006;4.720;2024-03-22T05:45:09;101700.19;;;11.39;100.00
18436;BME280;9346;52.006;4.720;2024-03-22T05:47:36;101697.19;;;11.41;100.00
18436;BME280;9346;52.006;4.720;2024-03-22T05:50:05;101696.34;;;11.40;100.00
18436;BME280;9346;52.006;4.720;2024-03-22T05:52:33;101698.03;;;11.41;100.00
18436;BME280;9346;52.006;4.720;2024-03-22T05:54:59;101688.91;;;11.41;100.00
18436;BME280;9346;52.006;4.720;2024-03-22T05:57:26;101688.66;;;11.42;100.00
18436;BME280;9346;52.006;4.720;2024-03-22T05:59:51;101682.28;;;11.42;100.00
18436;BME280;9346;52.006;4.720;2024-03-22T06:02:19;101672.09;;;11.42;100.00
18436;BME280;9346;52.006;4.720;2024-03-22T06:04:45;101664.09;;;11.41;100.00
18436;BME280;9346;52.006;4.720;2024-03-22T06:07:14;101668.75;;;11.40;100.00
18436;BME280;9346;52.006;4.720;2024-03-22T06:09:42;101668.75;;;11.40;100.00
18436;BME280;9346;52.006;4.720;2024-03-22T06:12:12;101668.75;;;11.40;100.00
18436;BME280;9346;52.006;4.720;2024-03-22T06:14:38;101668.50;;;11.42;100.00
18436;BME280;9346;52.006;4.720;2024-03-22T06:17:05;101672.41;;;11.46;100.00
18436;BME280;9346;52.006;4.720;2024-03-22T06:19:30;101664.97;;;11.46;100.00
18436;BME280;9346;52.006;4.720;2024-03-22T06:21:57;101669.63;;;11.46;100.00
18436;BME280;9346;52.006;4.720;2024-03-22T06:24:24;101675.41;;;11.44;100.00
18436;BME280;9346;52.006;4.720;2024-03-22T06:26:51;101659.41;;;11.41;100.00
18436;BME280;9346;52.006;4.720;2024-03-22T06:29:16;101665.47;;;11.43;100.00
18436;BME280;9346;52.006;4.720;2024-03-22T06:31:43;101671.84;;;11.44;100.00
18436;BME280;9346;52.006;4.720;2024-03-22T06:34:09;101662.47;;;11.45;100.00
18436;BME280;9346;52.006;4.720;2024-03-22T06:36:36;101664.13;;;11.46;100.00
18436;BME280;9346;52.006;4.720;2024-03-22T06:39:02;101669.38;;;11.47;100.00
18436;BME280;9346;52.006;4.720;2024-03-22T06:41:34;101676.06;;;11.51;100.00
18436;BME280;9346;52.006;4.720;2024-03-22T06:44:01;101671.94;;;11.54;100.00
18436;BME280;9346;52.006;4.720;2024-03-22T06:46:28;101675.84;;;11.58;100.00
18436;BME280;9346;52.006;4.720;2024-03-22T06:48:54;101674.47;;;11.60;100.00
18436;BME280;9346;52.006;4.720;2024-03-22T06:51:21;101674.47;;;11.60;100.00
18436;BME280;9346;52.006;4.720;2024-03-22T06:53:47;101667.66;;;11.63;100.00
18436;BME280;9346;52.006;4.720;2024-03-22T06:56:14;101674.00;;;11.63;100.00
18436;BME280;9346;52.006;4.720;2024-03-22T06:58:44;101670.16;;;11.64;100.00
18436;BME280;9346;52.006;4.720;2024-03-22T07:01:12;101671.56;;;11.67;100.00
18436;BME280;9346;52.006;4.720;2024-03-22T07:03:38;101673.22;;;11.68;100.00
18436;BME280;9346;52.006;4.720;2024-03-22T07:06:06;101677.91;;;11.67;100.00
18436;BME280;9346;52.006;4.720;2024-03-22T07:08:33;101660.25;;;11.68;100.00
18436;BME280;9346;52.006;4.720;2024-03-22T07:11:05;101669.94;;;11.71;100.00
18436;BME280;9346;52.006;4.720;2024-03-22T07:13:32;101664.41;;;11.71;100.00
18436;BME280;9346;52.006;4.720;2024-03-22T07:16:03;101669.41;;;11.74;100.00
18436;BME280;9346;52.006;4.720;2024-03-22T07:18:29;101671.06;;;11.75;100.00
18436;BME280;9346;52.006;4.720;2024-03-22T07:20:57;101672.75;;;11.76;100.00
18436;BME280;9346;52.006;4.720;2024-03-22T07:23:23;101671.06;;;11.75;100.00
18436;BME280;9346;52.006;4.720;2024-03-22T07:25:51;101673.56;;;11.76;100.00
18436;BME280;9346;52.006;4.720;2024-03-22T07:28:17;101678.00;;;11.77;100.00
18436;BME280;9346;52.006;4.720;2024-03-22T07:30:44;101675.53;;;11.81;100.00
18436;BME280;9346;52.006;4.720;2024-03-22T07:33:11;101674.72;;;11.80;100.00
18436;BME280;9346;52.006;4.720;2024-03-22T07:35:42;101684.66;;;11.81;100.00
18436;BME280;9346;52.006;4.720;2024-03-22T07:38:08;101678.81;;;11.78;100.00
18436;BME280;9346;52.006;4.720;2024-03-22T07:40:36;101678.28;;;11.81;100.00
18436;BME280;9346;52.006;4.720;2024-03-22T07:43:02;101676.66;;;11.80;100.00
18436;BME280;9346;52.006;4.720;2024-03-22T07:45:31;101670.53;;;11.78;100.00
18436;BME280;9346;52.006;4.720;2024-03-22T07:47:58;101672.75;;;11.76;100.00
18436;BME280;9346;52.006;4.720;2024-03-22T07:50:32;101672.16;;;11.74;100.00
18436;BME280;9346;52.006;4.720;2024-03-22T07:52:58;101676.84;;;11.73;100.00
18436;BME280;9346;52.006;4.720;2024-03-22T07:55:25;101669.41;;;11.74;100.00
18436;BME280;9346;52.006;4.720;2024-03-22T07:57:51;101666.38;;;11.75;100.00
18436;BME280;9346;52.006;4.720;2024-03-22T08:00:24;101666.91;;;11.72;100.00
18436;BME280;9346;52.006;4.720;2024-03-22T08:02:52;101670.78;;;11.71;100.00
18436;BME280;9346;52.006;4.720;2024-03-22T08:05:20;101669.13;;;11.70;100.00
18436;BME280;9346;52.006;4.720;2024-03-22T08:07:47;101665.25;;;11.71;100.00
18436;BME280;9346;52.006;4.720;2024-03-22T08:10:23;101673.78;;;11.70;100.00
18436;BME280;9346;52.006;4.720;2024-03-22T08:12:49;101667.44;;;11.69;100.00
18436;BME280;9346;52.006;4.720;2024-03-22T08:15:22;101675.19;;;11.72;100.00
18436;BME280;9346;52.006;4.720;2024-03-22T08:17:48;101668.84;;;11.72;100.00
18436;BME280;9346;52.006;4.720;2024-03-22T08:20:22;101678.78;;;11.73;100.00
18436;BME280;9346;52.006;4.720;2024-03-22T08:22:51;101675.78;;;11.74;100.00
18436;BME280;9346;52.006;4.720;2024-03-22T08:25:19;101676.84;;;11.73;100.00
18436;BME280;9346;52.006;4.720;2024-03-22T08:27:45;101680.72;;;11.72;100.00
18436;BME280;9346;52.006;4.720;2024-03-22T08:30:14;101679.59;;;11.73;100.00
18436;BME280;9346;52.006;4.720;2024-03-22T08:32:40;101677.13;;;11.72;100.00
18436;BME280;9346;52.006;4.720;2024-03-22T08:35:07;101677.94;;;11.72;100.00
18436;BME280;9346;52.006;4.720;2024-03-22T08:37:33;101672.44;;;11.72;100.00
18436;BME280;9346;52.006;4.720;2024-03-22T08:40:02;101676.84;;;11.73;100.00
18436;BME280;9346;52.006;4.720;2024-03-22T08:42:29;101669.16;;;11.75;100.00
18436;BME280;9346;52.006;4.720;2024-03-22T08:44:56;101667.22;;;11.76;100.00
18436;BME280;9346;52.006;4.720;2024-03-22T08:47:22;101669.47;;;11.79;100.00
18436;BME280;9346;52.006;4.720;2024-03-22T08:49:50;101662.53;;;11.76;100.00
18436;BME280;9346;52.006;4.720;2024-03-22T08:52:17;101666.97;;;11.77;100.00
18436;BME280;9346;52.006;4.720;2024-03-22T08:54:46;101663.63;;;11.75;100.00
18436;BME280;9346;52.006;4.720;2024-03-22T08:57:15;101662.53;;;11.76;100.00
18436;BME280;9346;52.006;4.720;2024-03-22T08:59:43;101661.72;;;11.76;100.00
18436;BME280;9346;52.006;4.720;2024-03-22T09:02:09;101654.75;;;11.73;100.00
18436;BME280;9346;52.006;4.720;2024-03-22T09:04:36;101659.22;;;11.74;100.00
18436;BME280;9346;52.006;4.720;2024-03-22T09:07:02;101659.75;;;11.76;100.00
18436;BME280;9346;52.006;4.720;2024-03-22T09:09:30;101662.53;;;11.76;100.00
18436;BME280;9346;52.006;4.720;2024-03-22T09:11:56;101657.00;;;11.76;100.00
18436;BME280;9346;52.006;4.720;2024-03-22T09:14:27;101650.16;;;11.79;100.00
18436;BME280;9346;52.006;4.720;2024-03-22T09:16:54;101659.81;;;11.81;100.00
18436;BME280;9346;52.006;4.720;2024-03-22T09:19:21;101651.28;;;11.83;100.00
18436;BME280;9346;52.006;4.720;2024-03-22T09:21:46;101657.66;;;11.83;100.00
18436;BME280;9346;52.006;4.720;2024-03-22T09:24:14;101660.66;;;11.82;100.00
18436;BME280;9346;52.006;4.720;2024-03-22T09:26:40;101665.66;;;11.85;100.00
18436;BME280;9346;52.006;4.720;2024-03-22T09:29:09;101663.97;;;11.84;100.00
18436;BME280;9346;52.006;4.720;2024-03-22T09:31:36;101658.97;;;11.81;100.00
18436;BME280;9346;52.006;4.720;2024-03-22T09:34:03;101660.41;;;11.83;100.00
18436;BME280;9346;52.006;4.720;2024-03-22T09:36:29;101668.94;;;11.82;100.00
18436;BME280;9346;52.006;4.720;2024-03-22T09:38:59;101658.16;;;11.80;100.00
18436;BME280;9346;52.006;4.720;2024-03-22T09:41:25;101657.59;;;11.78;100.00
18436;BME280;9346;52.006;4.720;2024-03-22T09:43:57;101659.50;;;11.78;100.00
18436;BME280;9346;52.006;4.720;2024-03-22T09:46:24;101656.75;;;11.78;100.00
18436;BME280;9346;52.006;4.720;2024-03-22T09:48:54;101655.66;;;11.79;100.00
18436;BME280;9346;52.006;4.720;2024-03-22T09:51:21;101658.44;;;11.79;100.00
18436;BME280;9346;52.006;4.720;2024-03-22T09:53:49;101652.66;;;11.80;100.00
18436;BME280;9346;52.006;4.720;2024-03-22T09:56:20;101648.84;;;11.86;100.00
18436;BME280;9346;52.006;4.720;2024-03-22T09:58:49;101656.81;;;11.88;100.00
18436;BME280;9346;52.006;4.720;2024-03-22T10:01:16;101641.38;;;11.87;100.00
18436;BME280;9346;52.006;4.720;2024-03-22T10:03:44;101640.56;;;11.86;100.00
18436;BME280;9346;52.006;4.720;2024-03-22T10:06:12;101640.84;;;11.90;100.00
18436;BME280;9346;52.006;4.720;2024-03-22T10:08:40;101640.84;;;11.90;100.00
18436;BME280;9346;52.006;4.720;2024-03-22T10:11:06;101639.47;;;11.92;100.00
18436;BME280;9346;52.006;4.720;2024-03-22T10:13:35;101639.53;;;11.97;100.00
18436;BME280;9346;52.006;4.720;2024-03-22T10:16:01;101653.06;;;11.99;100.00
18436;BME280;9346;52.006;4.720;2024-03-22T10:18:28;101646.19;;;12.01;100.00
18436;BME280;9346;52.006;4.720;2024-03-22T10:21:00;101635.72;;;12.03;100.00
18436;BME280;9346;52.006;4.720;2024-03-22T10:23:29;101637.63;;;12.03;100.00
18436;BME280;9346;52.006;4.720;2024-03-22T10:25:56;101644.53;;;12.05;100.00
18436;BME280;9346;52.006;4.720;2024-03-22T10:28:23;101649.28;;;12.10;100.00
18436;BME280;9346;52.006;4.720;2024-03-22T10:30:52;101648.19;;;12.11;100.00
18436;BME280;9346;52.006;4.720;2024-03-22T10:33:20;101649.84;;;12.12;100.00
18436;BME280;9346;52.006;4.720;2024-03-22T10:35:51;101645.69;;;12.09;100.00
18436;BME280;9346;52.006;4.720;2024-03-22T10:38:19;101643.16;;;12.03;100.00
18436;BME280;9346;52.006;4.720;2024-03-22T10:40:47;101655.00;;;11.98;100.00
18436;BME280;9346;52.006;4.720;2024-03-22T10:43:14;101645.63;;;11.99;100.00
18436;BME280;9346;52.006;4.720;2024-03-22T10:45:41;101651.69;;;12.01;100.00
18436;BME280;9346;52.006;4.720;2024-03-22T10:48:09;101651.44;;;12.03;100.00
18436;BME280;9346;52.006;4.720;2024-03-22T10:50:38;101648.41;;;12.04;100.00
18436;BME280;9346;52.006;4.720;2024-03-22T10:53:11;101646.22;;;12.06;100.00
18436;BME280;9346;52.006;4.720;2024-03-22T10:55:41;101650.13;;;12.10;100.00
18436;BME280;9346;52.006;4.720;2024-03-22T10:58:17;101646.53;;;12.10;100.00
18436;BME280;9346;52.006;4.720;2024-03-22T11:00:45;101649.59;;;12.13;100.00
18436;BME280;9346;52.006;4.720;2024-03-22T11:03:19;101644.06;;;12.13;100.00
18436;BME280;9346;52.006;4.720;2024-03-22T11:05:45;101642.97;;;12.14;100.00
18436;BME280;9346;52.006;4.720;2024-03-22T11:08:12;101636.06;;;12.12;100.00
18436;BME280;9346;52.006;4.720;2024-03-22T11:10:38;101636.88;;;12.12;100.00
18436;BME280;9346;52.006;4.720;2024-03-22T11:13:09;101637.16;;;12.11;100.00
18436;BME280;9346;52.006;4.720;2024-03-22T11:15:37;101629.13;;;12.09;100.00
18436;BME280;9346;52.006;4.720;2024-03-22T11:18:04;101636.88;;;12.12;100.00
18436;BME280;9346;52.006;4.720;2024-03-22T11:20:30;101627.75;;;12.12;100.00
18436;BME280;9346;52.006;4.720;2024-03-22T11:22:57;101637.44;;;12.14;100.00
18436;BME280;9346;52.006;4.720;2024-03-22T11:25:23;101632.44;;;12.11;100.00
18436;BME280;9346;52.006;4.720;2024-03-22T11:27:52;101632.97;;;12.08;100.00
18436;BME280;9346;52.006;4.720;2024-03-22T11:30:19;101626.91;;;12.06;100.00
18436;BME280;9346;52.006;4.720;2024-03-22T11:32:48;101623.56;;;12.04;100.00
18436;BME280;9346;52.006;4.720;2024-03-22T11:35:13;101627.75;;;12.12;100.00
18436;BME280;9346;52.006;4.720;2024-03-22T11:37:41;101618.94;;;12.15;100.00
18436;BME280;9346;52.006;4.720;2024-03-22T11:40:09;101615.09;;;12.16;100.00
18436;BME280;9346;52.006;4.720;2024-03-22T11:42:36;101613.44;;;12.20;100.00
18436;BME280;9346;52.006;4.720;2024-03-22T11:45:04;101620.13;;;12.24;100.00
18436;BME280;9346;52.006;4.720;2024-03-22T11:47:33;101608.22;;;12.23;100.00
18436;BME280;9346;52.006;4.720;2024-03-22T11:50:01;101607.09;;;12.19;100.00
18436;BME280;9346;52.006;4.720;2024-03-22T11:52:28;101608.75;;;12.20;100.00
18436;BME280;9346;52.006;4.720;2024-03-22T11:54:54;101615.94;;;12.21;100.00
18436;BME280;9346;52.006;4.720;2024-03-22T11:57:22;101611.25;;;12.22;100.00
18436;BME280;9346;52.006;4.720;2024-03-22T11:59:48;101605.47;;;12.23;100.00
18436;BME280;9346;52.006;4.720;2024-03-22T12:02:15;101609.66;;;12.31;100.00
18436;BME280;9346;52.006;4.720;2024-03-22T12:04:41;101606.63;;;12.32;100.00
18436;BME280;9346;52.006;4.720;2024-03-22T12:07:13;101599.72;;;12.35;100.00
18436;BME280;9346;52.006;4.720;2024-03-22T12:09:39;101592.03;;;12.37;100.00
18436;BME280;9346;52.006;4.720;2024-03-22T12:12:08;101593.69;;;12.38;100.00
18436;BME280;9346;52.006;4.720;2024-03-22T12:14:34;101598.34;;;12.37;100.00
18436;BME280;9346;52.006;4.720;2024-03-22T12:17:01;101584.00;;;12.35;100.00
18436;BME280;9346;52.006;4.720;2024-03-22T12:19:27;101580.97;;;12.37;100.00
18436;BME280;9346;52.006;4.720;2024-03-22T12:21:54;101577.09;;;12.38;100.00
18436;BME280;9346;52.006;4.720;2024-03-22T12:24:21;101567.44;;;12.40;100.00
18436;BME280;9346;52.006;4.720;2024-03-22T12:26:48;101569.41;;;12.45;100.00
18436;BME280;9346;52.006;4.720;2024-03-22T12:29:15;101569.13;;;12.46;100.00
18436;BME280;9346;52.006;4.720;2024-03-22T12:31:43;101567.22;;;12.47;100.00
18436;BME280;9346;52.006;4.720;2024-03-22T12:34:09;101566.41;;;12.51;100.00
18436;BME280;9346;52.006;4.720;2024-03-22T12:36:38;101551.75;;;12.51;100.00
18436;BME280;9346;52.006;4.720;2024-03-22T12:39:04;101557.56;;;12.54;100.00
18436;BME280;9346;52.006;4.720;2024-03-22T12:41:35;101558.13;;;12.56;100.00
18436;BME280;9346;52.006;4.720;2024-03-22T12:44:02;101557.03;;;12.57;100.00
18436;BME280;9346;52.006;4.720;2024-03-22T12:46:30;101557.28;;;12.51;100.00
18436;BME280;9346;52.006;4.720;2024-03-22T12:48:56;101560.00;;;12.41;100.00